Terminal Aerodrome Forecast
Issued by NWS Greer, SC

Home | Current Version | Previous Version | Text Only | Print | Product List | Glossary On
Versions: 1 2 3 4 5 6 7 8 9 10 11 12 13 14 15 16
000
FTUS42 KGSP 250806 AAA
TAFAVL
TAF AMD
KAVL 250806Z 2508/2606 34003KT P6SM BKN250
      TEMPO 2510/2512 5SM BR SCT003
     FM251300 34003KT P6SM SCT250
     FM251700 33006KT P6SM SCT050=

USA.gov is the U.S. government's official web portal to all federal, state and local government web resources and services.